KOCH/OCH METAR and TAF weather

Enter ICAO airport designator
Station Type Date Time Source
KOCH METAR 2020/09/20 05:56 UTC NOAA

KOCH 200556Z AUTO VRB04KT 10SM CLR 19/13 A3009 RMK AO2 SLP190 T01890133 10244 20189 402780178 58001


Station Type Date Time Source
KOCH Decoded METAR 2020/09/20 05:56 UTC NOAA

Nacogdoches, A L Mangham Jr. Regional Airport, TX, United States (KOCH) 31-35N 094-43W
Sep 20, 2020 - 01:56 AM EDT / 2020.09.20 0556 UTC
Wind: Variable at 5 MPH (4 KT):0
Visibility: 10 mile(s):0
Sky conditions: clear
Temperature: 66.0 F (18.9 C)
Dew Point: 55.9 F (13.3 C)
Relative Humidity: 69%
Pressure (altimeter): 30.09 in. Hg (1018 hPa)
Pressure tendency: 0.00 inches (0.1 hPa) lower than three hours ago
ob: KOCH 200556Z AUTO VRB04KT 10SM CLR 19/13 A3009 RMK AO2 SLP190 T01890133 10244 20189 402780178 58001
cycle: 6

Station Type Date Time Source
KOCH TAF UTC NOAA

Error!

Example: see airport list